createdAt,value
2023-05-09T00:01:14.544Z,101228.13
2023-05-09T00:03:42.903Z,101225.59
2023-05-09T00:06:11.494Z,101223.28
2023-05-09T00:08:38.933Z,101227.44
2023-05-09T00:11:06.265Z,101221.69
2023-05-09T00:13:34.732Z,101229.06
2023-05-09T00:16:02.375Z,101220.00
2023-05-09T00:18:31.168Z,101225.88
2023-05-09T00:20:58.666Z,101221.59
2023-05-09T00:23:26.013Z,101224.00
2023-05-09T00:25:53.405Z,101226.31
2023-05-09T00:28:20.838Z,101224.72
2023-05-09T00:30:48.184Z,101215.22
2023-05-09T00:33:15.647Z,101215.94
2023-05-09T00:35:43.117Z,101213.63
2023-05-09T00:38:13.789Z,101215.16
2023-05-09T00:40:41.148Z,101216.63
2023-05-09T00:43:08.532Z,101217.72
2023-05-09T00:45:35.905Z,101216.81
2023-05-09T00:48:03.787Z,101214.50
2023-05-09T00:50:31.546Z,101214.34
2023-05-09T00:52:59.186Z,101214.53
2023-05-09T00:55:27.274Z,101209.72
2023-05-09T00:57:54.730Z,101209.72
2023-05-09T01:00:22.241Z,101203.78
2023-05-09T01:02:53.210Z,101201.31
2023-05-09T01:05:24.661Z,101201.31
2023-05-09T01:08:10.638Z,101197.13
2023-05-09T01:10:48.189Z,101197.84
2023-05-09T01:13:29.884Z,101197.56
2023-05-09T01:16:09.439Z,101202.63
2023-05-09T01:18:45.408Z,101194.47
2023-05-09T01:21:24.106Z,101196.31
2023-05-09T01:24:13.162Z,101194.72
2023-05-09T01:26:47.073Z,101204.75
2023-05-09T01:29:58.864Z,101199.50
2023-05-09T01:32:28.675Z,101197.28
2023-05-09T01:35:01.114Z,101204.75
2023-05-09T01:37:32.866Z,101200.38
2023-05-09T01:40:06.428Z,101205.06
2023-05-09T01:42:46.526Z,101200.72
2023-05-09T01:45:15.884Z,101201.91
2023-05-09T01:47:44.228Z,101205.44
2023-05-09T01:50:12.718Z,101208.94
2023-05-09T01:52:42.213Z,101210.03
2023-05-09T01:55:11.242Z,101207.41
2023-05-09T01:57:40.395Z,101208.56
2023-05-09T02:00:10.149Z,101203.66
2023-05-09T02:02:45.505Z,101210.31
2023-05-09T02:05:15.657Z,101200.91
2023-05-09T02:07:44.785Z,101201.53
2023-05-09T02:10:12.725Z,101203.34
2023-05-09T02:12:41.057Z,101197.72
2023-05-09T02:15:09.336Z,101195.13
2023-05-09T02:17:42.346Z,101194.19
2023-05-09T02:20:11.498Z,101185.94
2023-05-09T02:22:41.763Z,101183.34
2023-05-09T02:25:11.129Z,101177.22
2023-05-09T02:27:40.557Z,101183.00
2023-05-09T02:30:12.764Z,101170.31
2023-05-09T02:32:42.776Z,101169.84
2023-05-09T02:35:11.489Z,101179.09
2023-05-09T02:37:39.003Z,101182.66
2023-05-09T02:40:09.206Z,101181.69
2023-05-09T02:42:36.637Z,101182.28
2023-05-09T02:45:04.397Z,101179.38
2023-05-09T02:47:32.083Z,101177.50
2023-05-09T02:49:59.466Z,101183.00
2023-05-09T02:52:27.088Z,101182.47
2023-05-09T02:54:54.668Z,101181.22
2023-05-09T02:57:22.107Z,101167.34
2023-05-09T02:59:49.590Z,101174.72
2023-05-09T03:02:17.971Z,101170.34
2023-05-09T03:04:46.057Z,101169.31
2023-05-09T03:07:14.585Z,101163.19
2023-05-09T03:09:41.993Z,101174.31
2023-05-09T03:12:09.418Z,101172.47
2023-05-09T03:14:37.067Z,101171.41
2023-05-09T03:17:04.485Z,101166.41
2023-05-09T03:19:35.602Z,101163.66
2023-05-09T03:22:03.012Z,101168.19
2023-05-09T03:24:34.241Z,101164.22
2023-05-09T03:27:02.908Z,101156.28
2023-05-09T03:29:30.466Z,101163.34
2023-05-09T03:31:57.863Z,101174.22
2023-05-09T03:34:25.248Z,101173.44
2023-05-09T03:36:52.723Z,101159.69
2023-05-09T03:39:20.325Z,101170.22
2023-05-09T03:41:52.555Z,101167.03
2023-05-09T03:44:20.018Z,101165.16
2023-05-09T03:46:47.389Z,101171.19
2023-05-09T03:49:15.269Z,101164.81
2023-05-09T03:51:47.587Z,101172.38
2023-05-09T03:54:16.909Z,101171.19
2023-05-09T03:56:44.303Z,101175.44
2023-05-09T03:59:11.755Z,101178.13
2023-05-09T04:01:42.300Z,101180.88
2023-05-09T04:04:10.083Z,101182.09
2023-05-09T04:06:38.010Z,101189.81
2023-05-09T04:09:07.535Z,101184.94
2023-05-09T04:11:35.876Z,101194.53
2023-05-09T04:14:07.180Z,101187.84
2023-05-09T04:16:36.609Z,101185.22
2023-05-09T04:19:07.282Z,101189.66
2023-05-09T04:21:35.861Z,101195.59
2023-05-09T04:24:04.474Z,101190.56
2023-05-09T04:26:39.093Z,101193.91
2023-05-09T04:29:09.708Z,101187.81
2023-05-09T04:31:37.294Z,101184.81
2023-05-09T04:34:06.520Z,101188.16
2023-05-09T04:36:35.433Z,101190.56
2023-05-09T04:39:05.223Z,101183.66
2023-05-09T04:41:33.844Z,101190.84
2023-05-09T04:44:01.993Z,101182.66
2023-05-09T04:46:30.455Z,101174.94
2023-05-09T04:48:58.212Z,101179.34
2023-05-09T04:51:26.700Z,101178.56
2023-05-09T04:53:54.154Z,101183.38
2023-05-09T04:56:25.975Z,101189.72
2023-05-09T04:58:53.773Z,101187.69
2023-05-09T05:01:24.545Z,101184.97
2023-05-09T05:03:52.317Z,101182.75
2023-05-09T05:06:20.082Z,101181.25
2023-05-09T05:08:47.578Z,101185.69
2023-05-09T05:11:15.155Z,101194.75
2023-05-09T05:13:45.597Z,101197.41
2023-05-09T05:16:13.103Z,101194.38
2023-05-09T05:18:40.512Z,101193.31
2023-05-09T05:21:08.619Z,101198.19
2023-05-09T05:23:36.220Z,101203.69
2023-05-09T05:26:03.850Z,101202.09
2023-05-09T05:28:32.911Z,101202.72
2023-05-09T05:31:00.385Z,101205.56
2023-05-09T05:33:27.812Z,101198.81
2023-05-09T05:35:56.184Z,101204.41
2023-05-09T05:38:23.779Z,101205.75
2023-05-09T05:40:54.784Z,101199.88
2023-05-09T05:43:23.144Z,101210.50
2023-05-09T05:45:51.154Z,101207.50
2023-05-09T05:48:22.123Z,101208.50
2023-05-09T05:50:49.555Z,101221.88
2023-05-09T05:53:20.290Z,101217.69
2023-05-09T05:55:49.204Z,101213.53
2023-05-09T05:58:16.872Z,101216.09
2023-05-09T06:00:44.349Z,101218.84
2023-05-09T06:03:14.353Z,101217.72
2023-05-09T06:05:48.183Z,101214.97
2023-05-09T06:08:15.899Z,101223.75
2023-05-09T06:10:43.288Z,101210.50
2023-05-09T06:13:11.675Z,101212.13
2023-05-09T06:15:42.708Z,101207.22
2023-05-09T06:18:11.170Z,101202.88
2023-05-09T06:20:38.576Z,101205.81
2023-05-09T06:23:06.099Z,101209.63
2023-05-09T06:25:33.460Z,101212.91
2023-05-09T06:28:00.863Z,101208.63
2023-05-09T06:30:28.248Z,101211.31
2023-05-09T06:32:55.755Z,101216.63
2023-05-09T06:35:23.102Z,101212.66
2023-05-09T06:37:50.669Z,101209.78
2023-05-09T06:40:18.085Z,101213.53
2023-05-09T06:42:45.635Z,101213.34
2023-05-09T06:45:13.473Z,101204.94
2023-05-09T06:47:41.600Z,101201.34
2023-05-09T06:50:09.266Z,101201.81
2023-05-09T06:52:36.906Z,101192.41
2023-05-09T06:55:04.627Z,101194.44
2023-05-09T06:57:32.512Z,101190.75
2023-05-09T06:59:59.811Z,101196.94
2023-05-09T07:02:27.234Z,101186.31
2023-05-09T07:04:54.740Z,101186.22
2023-05-09T07:07:22.464Z,101184.84
2023-05-09T07:09:52.998Z,101175.78
2023-05-09T07:12:22.738Z,101185.28
2023-05-09T07:14:52.748Z,101179.19
2023-05-09T07:17:23.587Z,101173.59
2023-05-09T07:19:51.794Z,101180.72
2023-05-09T07:22:22.109Z,101174.16
2023-05-09T07:24:50.784Z,101172.19
2023-05-09T07:27:18.157Z,101181.81
2023-05-09T07:29:45.599Z,101173.09
2023-05-09T07:32:13.017Z,101163.53
2023-05-09T07:34:43.081Z,101161.53
2023-05-09T07:37:10.801Z,101176.03
2023-05-09T07:39:38.363Z,101162.22
2023-05-09T07:42:05.811Z,101161.16
2023-05-09T07:44:33.165Z,101158.56
2023-05-09T07:47:01.153Z,101156.09
2023-05-09T07:49:28.462Z,101155.97
2023-05-09T07:51:55.897Z,101157.97
2023-05-09T07:54:23.494Z,101153.16
2023-05-09T07:56:50.873Z,101147.25
2023-05-09T07:59:18.520Z,101144.97
2023-05-09T08:01:46.143Z,101140.97
2023-05-09T08:04:13.624Z,101146.13
2023-05-09T08:06:43.133Z,101146.97
2023-05-09T08:09:10.542Z,101147.00
2023-05-09T08:11:38.179Z,101152.84
2023-05-09T08:14:05.560Z,101150.22
2023-05-09T08:16:51.559Z,101152.69
2023-05-09T08:19:21.051Z,101156.97
2023-05-09T08:21:48.474Z,101149.56
2023-05-09T08:24:15.833Z,101147.84
2023-05-09T08:26:44.208Z,101138.22
2023-05-09T08:29:12.105Z,101146.47
2023-05-09T08:31:39.630Z,101140.81
2023-05-09T08:34:07.114Z,101136.69
2023-05-09T08:36:35.626Z,101139.69
2023-05-09T08:39:03.172Z,101133.38
2023-05-09T08:41:36.211Z,101122.59
2023-05-09T08:44:04.750Z,101123.31
2023-05-09T08:46:38.969Z,101123.41
2023-05-09T08:49:09.484Z,101122.84
2023-05-09T08:51:38.197Z,101122.47
2023-05-09T08:54:06.540Z,101117.41
2023-05-09T08:56:35.554Z,101119.75
2023-05-09T08:59:05.781Z,101127.75
2023-05-09T09:01:35.854Z,101125.13
2023-05-09T09:04:06.599Z,101118.78
2023-05-09T09:06:35.567Z,101120.03
2023-05-09T09:09:06.155Z,101120.47
2023-05-09T09:11:35.119Z,101112.16
2023-05-09T09:14:26.674Z,101108.72
2023-05-09T09:16:56.138Z,101107.69
2023-05-09T09:19:28.874Z,101095.22
2023-05-09T09:21:59.691Z,101094.03
2023-05-09T09:24:27.116Z,101099.34
2023-05-09T09:26:54.567Z,101091.09
2023-05-09T09:29:23.103Z,101086.19
2023-05-09T09:31:56.949Z,101094.56
2023-05-09T09:34:24.463Z,101088.28
2023-05-09T09:36:54.787Z,101096.44
2023-05-09T09:39:22.204Z,101097.50
2023-05-09T09:41:49.609Z,101092.50
2023-05-09T09:44:18.885Z,101092.09
2023-05-09T09:46:54.428Z,101098.78
2023-05-09T09:49:26.247Z,101094.88
2023-05-09T09:51:55.705Z,101085.81
2023-05-09T09:54:26.139Z,101084.59
2023-05-09T09:56:54.882Z,101080.25
2023-05-09T09:59:25.607Z,101082.19
2023-05-09T10:01:55.505Z,101084.13
2023-05-09T10:04:23.162Z,101073.50
2023-05-09T10:06:54.070Z,101074.31
2023-05-09T10:09:23.153Z,101063.13
2023-05-09T10:11:54.678Z,101060.34
2023-05-09T10:14:24.107Z,101065.06
2023-05-09T10:16:55.285Z,101069.50
2023-05-09T10:19:24.558Z,101066.31
2023-05-09T10:21:59.809Z,101069.53
2023-05-09T10:24:35.856Z,101060.72
2023-05-09T10:27:06.050Z,101064.38
2023-05-09T10:29:44.687Z,101065.53
2023-05-09T10:32:17.622Z,101054.47
2023-05-09T10:34:58.325Z,101061.19
2023-05-09T10:37:26.667Z,101067.13
2023-05-09T10:39:55.566Z,101061.59
2023-05-09T10:42:25.245Z,101066.38
2023-05-09T10:44:53.832Z,101050.03
2023-05-09T10:47:29.267Z,101052.78
2023-05-09T10:49:57.892Z,101057.66
2023-05-09T10:52:25.271Z,101054.44
2023-05-09T10:55:04.378Z,101050.09
2023-05-09T10:57:32.944Z,101057.66
2023-05-09T11:00:00.597Z,101036.63
2023-05-09T11:02:32.675Z,101035.03
2023-05-09T11:05:22.826Z,101018.16
2023-05-09T11:08:23.561Z,101025.81
2023-05-09T11:10:51.881Z,101026.69
2023-05-09T11:13:21.334Z,101026.22
2023-05-09T11:16:01.226Z,101013.22
2023-05-09T11:18:29.455Z,101022.28
2023-05-09T11:20:58.192Z,101016.19
2023-05-09T11:23:27.334Z,101008.22
2023-05-09T11:26:05.081Z,101006.56
2023-05-09T11:28:34.403Z,101013.16
2023-05-09T11:31:10.522Z,101000.16
2023-05-09T11:33:39.500Z,101007.63
2023-05-09T11:36:20.009Z,100999.94
2023-05-09T11:38:48.027Z,100994.19
2023-05-09T11:41:15.920Z,100985.53
2023-05-09T11:43:45.021Z,100983.38
2023-05-09T11:46:12.946Z,100983.75
2023-05-09T11:48:42.316Z,100987.13
2023-05-09T11:51:18.139Z,100978.56
2023-05-09T11:53:49.746Z,100980.06
2023-05-09T11:56:17.967Z,100972.41
2023-05-09T11:58:46.817Z,100974.19
2023-05-09T12:01:14.212Z,100983.75
2023-05-09T12:03:45.630Z,100971.91
2023-05-09T12:06:18.231Z,100975.78
2023-05-09T12:08:46.758Z,100973.44
2023-05-09T12:11:15.089Z,100957.25
2023-05-09T12:13:50.010Z,100953.50
2023-05-09T12:16:19.110Z,100947.56
2023-05-09T12:18:51.155Z,100952.09
2023-05-09T12:21:21.565Z,100942.16
2023-05-09T12:23:51.254Z,100953.47
2023-05-09T12:26:19.799Z,100944.53
2023-05-09T12:28:48.320Z,100936.81
2023-05-09T12:31:18.607Z,100936.13
2023-05-09T12:33:46.966Z,100932.97
2023-05-09T12:36:15.915Z,100931.97
2023-05-09T12:38:55.836Z,100937.50
2023-05-09T12:41:36.806Z,100916.31
2023-05-09T12:44:04.855Z,100918.34
2023-05-09T12:46:32.274Z,100923.75
2023-05-09T12:48:59.907Z,100918.09
2023-05-09T12:51:27.286Z,100911.00
2023-05-09T12:53:54.787Z,100898.53
2023-05-09T12:56:25.264Z,100889.72
2023-05-09T12:58:55.177Z,100889.47
2023-05-09T13:01:29.545Z,100890.03
2023-05-09T13:04:02.220Z,100894.41
2023-05-09T13:06:29.695Z,100881.97
2023-05-09T13:09:02.411Z,100890.75
2023-05-09T13:11:30.007Z,100878.44
2023-05-09T13:13:57.815Z,100877.88
2023-05-09T13:16:25.428Z,100877.28
2023-05-09T13:18:52.876Z,100871.44
2023-05-09T13:21:20.334Z,100871.13
2023-05-09T13:23:50.099Z,100872.00
2023-05-09T13:26:17.637Z,100868.53
2023-05-09T13:28:45.021Z,100870.47
2023-05-09T13:31:12.404Z,100869.41
2023-05-09T13:33:39.864Z,100865.88
2023-05-09T13:36:07.504Z,100853.56
2023-05-09T13:38:38.777Z,100851.91
2023-05-09T13:41:09.302Z,100841.13
2023-05-09T13:43:37.281Z,100830.00
2023-05-09T13:46:04.748Z,100830.13
2023-05-09T13:48:34.218Z,100834.22
2023-05-09T13:51:01.646Z,100835.88
2023-05-09T13:53:29.224Z,100835.63
2023-05-09T13:55:57.165Z,100839.91
2023-05-09T13:58:24.564Z,100826.81
2023-05-09T14:00:51.925Z,100829.31
2023-05-09T14:03:19.289Z,100827.00
2023-05-09T14:05:49.629Z,100828.66
2023-05-09T14:08:17.225Z,100835.72
2023-05-09T14:10:44.770Z,100820.66
2023-05-09T14:13:12.747Z,100813.13
2023-05-09T14:15:40.542Z,100815.97
2023-05-09T14:18:08.321Z,100807.53
2023-05-09T14:20:37.299Z,100799.19
2023-05-09T14:23:04.652Z,100805.63
2023-05-09T14:25:32.449Z,100792.91
2023-05-09T14:27:59.818Z,100801.63
2023-05-09T14:30:27.283Z,100792.50
2023-05-09T14:32:54.826Z,100790.97
2023-05-09T14:35:22.350Z,100788.97
2023-05-09T14:37:49.805Z,100782.94
2023-05-09T14:40:17.253Z,100780.16
2023-05-09T14:42:44.879Z,100788.00
2023-05-09T14:45:12.800Z,100793.75
2023-05-09T14:47:41.317Z,100794.16
2023-05-09T14:50:11.472Z,100794.44
2023-05-09T14:52:38.853Z,100801.97
2023-05-09T14:55:07.424Z,100807.19
2023-05-09T14:57:34.853Z,100803.63
2023-05-09T15:00:16.661Z,100796.94
2023-05-09T15:02:49.316Z,100788.50
2023-05-09T15:05:17.286Z,100797.28
2023-05-09T15:07:44.680Z,100803.69
2023-05-09T15:10:12.329Z,100800.94
2023-05-09T15:12:39.768Z,100786.19
2023-05-09T15:15:15.630Z,100787.44
2023-05-09T15:17:44.482Z,100787.88
2023-05-09T15:20:15.701Z,100781.16
2023-05-09T15:22:44.369Z,100776.78
2023-05-09T15:25:11.870Z,100772.81
2023-05-09T15:27:40.080Z,100775.22
2023-05-09T15:30:09.136Z,100785.50
2023-05-09T15:32:42.733Z,100784.72
2023-05-09T15:35:11.128Z,100777.97
2023-05-09T15:37:38.606Z,100779.56
2023-05-09T15:40:07.537Z,100775.53
2023-05-09T15:42:35.356Z,100771.63
2023-05-09T15:45:03.791Z,100769.63
2023-05-09T15:47:31.345Z,100760.09
2023-05-09T15:49:58.778Z,100766.84
2023-05-09T15:52:27.573Z,100771.22
2023-05-09T15:54:56.284Z,100763.28
2023-05-09T15:57:24.882Z,100761.63
2023-05-09T15:59:55.191Z,100772.66
2023-05-09T16:02:22.866Z,100769.56
2023-05-09T16:04:50.347Z,100782.72
2023-05-09T16:07:19.536Z,100767.28
2023-05-09T16:09:47.319Z,100776.41
2023-05-09T16:12:14.832Z,100773.22
2023-05-09T16:14:42.740Z,100771.28
2023-05-09T16:17:10.200Z,100774.03
2023-05-09T16:19:37.545Z,100769.66
2023-05-09T16:22:05.016Z,100768.91
2023-05-09T16:24:32.364Z,100763.75
2023-05-09T16:26:59.814Z,100770.88
2023-05-09T16:29:30.127Z,100770.88
2023-05-09T16:31:57.517Z,100772.88
2023-05-09T16:34:24.892Z,100777.19
2023-05-09T16:36:52.482Z,100770.47
2023-05-09T16:39:19.855Z,100763.75
2023-05-09T16:41:47.303Z,100770.84
2023-05-09T16:44:15.338Z,100764.50
2023-05-09T16:46:43.038Z,100762.09
2023-05-09T16:49:11.061Z,100767.25
2023-05-09T16:51:38.761Z,100762.50
2023-05-09T16:54:06.615Z,100767.59
2023-05-09T16:56:34.914Z,100762.47
2023-05-09T16:59:02.658Z,100759.31
2023-05-09T17:01:30.140Z,100749.38
2023-05-09T17:03:57.610Z,100747.81
2023-05-09T17:06:25.092Z,100743.91
2023-05-09T17:08:52.610Z,100747.78
2023-05-09T17:11:20.165Z,100752.16
2023-05-09T17:13:47.456Z,100749.38
2023-05-09T17:16:14.890Z,100756.13
2023-05-09T17:18:46.025Z,100751.72
2023-05-09T17:21:17.241Z,100754.91
2023-05-09T17:23:44.581Z,100760.47
2023-05-09T17:26:14.002Z,100756.53
2023-05-09T17:28:41.382Z,100762.03
2023-05-09T17:31:08.862Z,100757.28
2023-05-09T17:33:36.352Z,100747.78
2023-05-09T17:36:06.956Z,100754.94
2023-05-09T17:38:34.320Z,100754.09
2023-05-09T17:41:01.743Z,100754.06
2023-05-09T17:43:29.069Z,100739.03
2023-05-09T17:45:56.806Z,100748.13
2023-05-09T17:48:24.389Z,100746.47
2023-05-09T17:50:51.730Z,100745.66
2023-05-09T17:53:19.134Z,100737.41
2023-05-09T17:55:46.519Z,100733.00
2023-05-09T17:58:15.093Z,100729.06
2023-05-09T18:00:42.582Z,100732.94
2023-05-09T18:03:10.335Z,100737.28
2023-05-09T18:05:38.063Z,100738.78
2023-05-09T18:08:05.711Z,100738.31
2023-05-09T18:10:33.129Z,100732.81
2023-05-09T18:13:00.841Z,100743.44
2023-05-09T18:15:28.255Z,100746.56
2023-05-09T18:17:57.680Z,100741.81
2023-05-09T18:20:25.118Z,100741.47
2023-05-09T18:22:53.816Z,100745.47
2023-05-09T18:25:21.486Z,100748.22
2023-05-09T18:27:51.585Z,100748.56
2023-05-09T18:30:18.984Z,100747.41
2023-05-09T18:32:47.146Z,100740.66
2023-05-09T18:35:14.955Z,100741.03
2023-05-09T18:37:43.111Z,100743.81
2023-05-09T18:40:17.060Z,100742.94
2023-05-09T18:42:44.809Z,100747.66
2023-05-09T18:45:13.377Z,100748.84
2023-05-09T18:47:40.826Z,100754.72
2023-05-09T18:50:08.604Z,100737.44
2023-05-09T18:52:36.072Z,100745.25
2023-05-09T18:55:05.865Z,100741.69
2023-05-09T18:57:33.943Z,100740.91
2023-05-09T19:00:01.543Z,100755.88
2023-05-09T19:02:30.256Z,100747.97
2023-05-09T19:04:57.641Z,100750.72
2023-05-09T19:07:37.600Z,100750.72
2023-05-09T19:10:08.154Z,100755.00
2023-05-09T19:12:35.636Z,100754.53
2023-05-09T19:15:03.486Z,100756.56
2023-05-09T19:17:32.011Z,100757.16
2023-05-09T19:20:01.558Z,100750.06
2023-05-09T19:22:28.982Z,100752.88
2023-05-09T19:24:59.183Z,100755.94
2023-05-09T19:27:26.684Z,100756.72
2023-05-09T19:29:54.161Z,100756.72
2023-05-09T19:32:21.542Z,100759.44
2023-05-09T19:34:48.926Z,100755.44
2023-05-09T19:37:16.272Z,100763.81
2023-05-09T19:39:43.651Z,100760.19
2023-05-09T19:42:11.011Z,100759.72
2023-05-09T19:44:40.446Z,100772.00
2023-05-09T19:47:09.039Z,100761.22
2023-05-09T19:49:36.436Z,100761.16
2023-05-09T19:52:03.846Z,100764.53
2023-05-09T19:54:32.008Z,100771.28
2023-05-09T19:56:59.366Z,100776.41
2023-05-09T19:59:26.935Z,100772.47
2023-05-09T20:01:54.376Z,100771.63
2023-05-09T20:04:24.006Z,100770.50
2023-05-09T20:06:51.448Z,100772.38
2023-05-09T20:09:20.994Z,100768.88
2023-05-09T20:11:48.387Z,100782.69
2023-05-09T20:14:15.749Z,100778.88
2023-05-09T20:16:43.855Z,100767.47
2023-05-09T20:19:14.059Z,100772.19
2023-05-09T20:21:41.463Z,100779.28
2023-05-09T20:24:09.169Z,100770.69
2023-05-09T20:26:36.486Z,100774.38
2023-05-09T20:29:04.796Z,100775.31
2023-05-09T20:31:32.331Z,100770.13
2023-05-09T20:34:00.205Z,100776.88
2023-05-09T20:36:28.533Z,100763.78
2023-05-09T20:38:57.324Z,100770.34
2023-05-09T20:41:24.756Z,100766.38
2023-05-09T20:43:52.164Z,100758.06
2023-05-09T20:46:19.524Z,100755.84
2023-05-09T20:48:47.193Z,100753.59
2023-05-09T20:51:14.548Z,100758.28
2023-05-09T20:53:41.796Z,100754.41
2023-05-09T20:56:09.017Z,100754.72
2023-05-09T20:58:36.408Z,100752.75
2023-05-09T21:01:03.779Z,100744.34
2023-05-09T21:03:31.222Z,100750.56
2023-05-09T21:05:58.932Z,100744.19
2023-05-09T21:08:26.745Z,100747.91
2023-05-09T21:10:54.328Z,100755.56
2023-05-09T21:13:21.761Z,100749.59
2023-05-09T21:15:50.797Z,100750.16
2023-05-09T21:18:18.952Z,100741.97
2023-05-09T21:20:46.400Z,100741.34
2023-05-09T21:23:14.371Z,100746.47
2023-05-09T21:25:41.955Z,100742.50
2023-05-09T21:28:09.305Z,100744.16
2023-05-09T21:30:36.590Z,100734.09
2023-05-09T21:33:04.072Z,100734.41
2023-05-09T21:35:31.499Z,100738.03
2023-05-09T21:37:58.947Z,100743.63
2023-05-09T21:40:26.302Z,100742.44
2023-05-09T21:42:53.589Z,100738.59
2023-05-09T21:45:20.956Z,100736.38
2023-05-09T21:47:48.827Z,100732.53
2023-05-09T21:50:16.550Z,100725.00
2023-05-09T21:52:44.050Z,100733.50
2023-05-09T21:55:11.280Z,100735.06
2023-05-09T21:57:38.662Z,100733.50
2023-05-09T22:00:07.183Z,100728.03
2023-05-09T22:02:43.854Z,100725.84
2023-05-09T22:05:11.774Z,100720.56
2023-05-09T22:07:39.376Z,100726.34
2023-05-09T22:10:07.203Z,100719.56
2023-05-09T22:12:34.587Z,100723.00
2023-05-09T22:15:02.303Z,100716.69
2023-05-09T22:17:29.981Z,100709.25
2023-05-09T22:19:58.451Z,100712.84
2023-05-09T22:22:26.879Z,100699.44
2023-05-09T22:24:54.144Z,100699.44
2023-05-09T22:27:21.513Z,100705.88
2023-05-09T22:29:48.769Z,100703.84
2023-05-09T22:32:16.580Z,100695.59
2023-05-09T22:34:49.476Z,100693.78
2023-05-09T22:37:16.841Z,100694.31
2023-05-09T22:39:46.248Z,100686.88
2023-05-09T22:42:13.555Z,100680.09
2023-05-09T22:44:40.992Z,100684.34
2023-05-09T22:47:08.392Z,100674.34
2023-05-09T22:49:35.812Z,100672.69
2023-05-09T22:52:03.558Z,100665.41
2023-05-09T22:54:30.932Z,100664.56
2023-05-09T22:56:58.323Z,100664.06
2023-05-09T22:59:25.658Z,100658.94
2023-05-09T23:01:53.569Z,100657.34
2023-05-09T23:04:21.815Z,100656.75
2023-05-09T23:06:49.272Z,100654.16
2023-05-09T23:09:16.629Z,100660.50
2023-05-09T23:11:43.986Z,100653.06
2023-05-09T23:14:11.351Z,100648.50
2023-05-09T23:16:38.729Z,100647.84
2023-05-09T23:19:06.278Z,100638.47
2023-05-09T23:21:35.753Z,100642.13
2023-05-09T23:24:03.154Z,100640.78
2023-05-09T23:26:30.603Z,100632.53
2023-05-09T23:28:57.915Z,100635.16
2023-05-09T23:31:25.440Z,100634.06
2023-05-09T23:33:52.825Z,100630.72
2023-05-09T23:36:20.195Z,100631.88
2023-05-09T23:38:48.689Z,100621.97
2023-05-09T23:41:19.119Z,100614.94
2023-05-09T23:43:46.483Z,100609.81
2023-05-09T23:46:14.226Z,100615.00
2023-05-09T23:48:41.759Z,100605.41
2023-05-09T23:51:09.148Z,100597.97
2023-05-09T23:53:36.484Z,100600.28
2023-05-09T23:56:05.584Z,100608.28
2023-05-09T23:58:32.967Z,100609.88
